Time;durP1;ratioP1;P1;durP2;ratioP2;P2;SDS_P1;SDS_P2;PMS_P1;PMS_P2;Temp;Humidity;BMP_temperature;BMP_pressure;BME280_temperature;BME280_humidity;BME280_pressure;Samples;Min_cycle;Max_cycle;Signal;HPM_P1;HPM_P2
2023/10/18 00:00:36;;;;;;;5.20;3.03;;;14.90;93.20;;;;;;4953069;29;20221;-41
2023/10/18 00:03:02;;;;;;;5.05;3.30;;;14.90;93.20;;;;;;4953086;29;20059;-43
2023/10/18 00:05:29;;;;;;;4.30;3.47;;;14.90;93.20;;;;;;4952870;29;20038;-34
2023/10/18 00:07:59;;;;;;;4.75;3.08;;;14.90;93.10;;;;;;4952990;29;20046;-40
2023/10/18 00:10:26;;;;;;;3.88;2.92;;;14.90;93.10;;;;;;4953170;29;20042;-43
2023/10/18 00:12:52;;;;;;;5.43;3.30;;;14.90;93.10;;;;;;4953162;29;20031;-39
2023/10/18 00:15:19;;;;;;;4.95;3.30;;;14.90;93.10;;;;;;4952849;29;20023;-40
2023/10/18 00:17:45;;;;;;;4.03;3.10;;;14.90;93.10;;;;;;4952891;29;20032;-45
2023/10/18 00:20:15;;;;;;;4.60;2.88;;;14.90;93.10;;;;;;4952794;29;20031;-41
2023/10/18 00:22:44;;;;;;;5.68;3.15;;;14.90;93.10;;;;;;4952904;29;20035;-39
2023/10/18 00:25:10;;;;;;;4.82;2.88;;;14.90;93.10;;;;;;4952873;29;20042;-40
2023/10/18 00:27:41;;;;;;;5.32;3.40;;;14.80;93.00;;;;;;4953022;29;20032;-44
2023/10/18 00:30:07;;;;;;;4.18;2.83;;;14.80;93.00;;;;;;4952954;29;20046;-36
2023/10/18 00:32:34;;;;;;;7.45;3.33;;;14.80;93.00;;;;;;4952669;29;20028;-40
2023/10/18 00:34:59;;;;;;;5.72;3.15;;;14.80;93.00;;;;;;4952716;29;20023;-39
2023/10/18 00:37:25;;;;;;;4.70;3.15;;;14.80;93.00;;;;;;4952765;29;20031;-40
2023/10/18 00:39:51;;;;;;;4.55;3.15;;;14.80;93.00;;;;;;4955477;28;20394;-41
2023/10/18 00:42:27;;;;;;;4.65;3.20;;;14.90;93.00;;;;;;4956309;29;20425;-39
2023/10/18 00:45:01;;;;;;;5.57;3.22;;;14.80;92.90;;;;;;4956256;29;20023;-43
2023/10/18 00:47:29;;;;;;;3.55;2.95;;;14.80;92.90;;;;;;4956194;29;20495;-38
2023/10/18 00:49:55;;;;;;;3.95;2.88;;;14.80;92.90;;;;;;4956094;29;20059;-39
2023/10/18 00:52:24;;;;;;;5.07;3.67;;;14.80;92.90;;;;;;4956074;29;20027;-38
2023/10/18 00:54:50;;;;;;;4.47;3.20;;;14.80;92.80;;;;;;4955990;29;20477;-36
2023/10/18 00:57:34;;;;;;;4.43;3.05;;;14.80;92.80;;;;;;4956030;29;20111;-36
2023/10/18 01:00:06;;;;;;;4.70;3.10;;;14.80;92.80;;;;;;4956263;29;20103;-44
2023/10/18 01:02:35;;;;;;;5.53;3.35;;;14.80;92.80;;;;;;4956163;29;20362;-39
2023/10/18 01:05:08;;;;;;;4.65;3.17;;;14.80;92.80;;;;;;4955796;29;20089;-40
2023/10/18 01:07:34;;;;;;;4.07;3.00;;;14.80;92.80;;;;;;4956011;29;20450;-42
2023/10/18 01:09:59;;;;;;;4.30;2.95;;;14.80;92.80;;;;;;4955822;29;20114;-35
2023/10/18 01:12:25;;;;;;;4.30;3.13;;;14.80;92.80;;;;;;4955665;29;20038;-39
2023/10/18 01:14:51;;;;;;;3.70;3.10;;;14.80;92.70;;;;;;4955892;29;20027;-38
2023/10/18 01:17:16;;;;;;;4.13;3.40;;;14.80;92.70;;;;;;4956889;29;20031;-39
2023/10/18 01:19:43;;;;;;;4.30;3.13;;;14.80;92.70;;;;;;4957768;29;20019;-38
2023/10/18 01:22:09;;;;;;;4.53;3.10;;;14.80;92.70;;;;;;4956434;29;20501;-39
2023/10/18 01:24:35;;;;;;;5.90;3.40;;;14.80;92.70;;;;;;4956121;29;20069;-38
2023/10/18 01:27:04;;;;;;;5.32;3.17;;;14.80;92.70;;;;;;4955457;29;20599;-38
2023/10/18 01:29:30;;;;;;;4.32;2.90;;;14.80;92.60;;;;;;4955545;29;20031;-39
2023/10/18 01:31:56;;;;;;;3.88;3.03;;;14.80;92.70;;;;;;4955530;29;20126;-39
2023/10/18 01:34:23;;;;;;;4.05;2.90;;;14.80;92.60;;;;;;4955355;29;20053;-37
2023/10/18 01:36:49;;;;;;;3.75;2.80;;;14.80;92.60;;;;;;4955588;29;20496;-38
2023/10/18 01:39:21;;;;;;;3.30;2.53;;;14.80;92.60;;;;;;4955067;29;20106;-38
2023/10/18 01:41:53;;;;;;;4.35;2.85;;;14.80;92.60;;;;;;4955734;29;20474;-39
2023/10/18 01:44:35;;;;;;;4.57;3.30;;;14.80;92.60;;;;;;4955323;29;20168;-37
2023/10/18 01:47:07;;;;;;;5.72;2.97;;;14.80;92.60;;;;;;4955076;29;20045;-38
2023/10/18 01:49:40;;;;;;;4.80;2.97;;;14.70;92.50;;;;;;4954892;28;20462;-38
2023/10/18 01:52:08;;;;;;;4.45;2.97;;;14.70;92.50;;;;;;4954911;29;20055;-39
2023/10/18 01:54:34;;;;;;;5.13;2.75;;;14.80;92.60;;;;;;4955112;29;20086;-41
2023/10/18 01:57:00;;;;;;;3.40;2.72;;;14.80;92.50;;;;;;4954904;29;20023;-39
2023/10/18 01:59:29;;;;;;;5.30;3.33;;;14.80;92.50;;;;;;4955062;29;20027;-38
2023/10/18 02:01:57;;;;;;;5.38;2.72;;;14.70;92.50;;;;;;4954928;29;20103;-38
2023/10/18 02:04:26;;;;;;;4.25;3.03;;;14.70;92.50;;;;;;4954786;29;20023;-41
2023/10/18 02:06:59;;;;;;;3.83;2.90;;;14.70;92.50;;;;;;4954711;29;20523;-38
2023/10/18 02:09:35;;;;;;;5.25;2.80;;;14.70;92.40;;;;;;4955302;29;20099;-38
2023/10/18 02:12:07;;;;;;;4.10;2.83;;;14.70;92.40;;;;;;4954850;29;20201;-40
2023/10/18 02:14:33;;;;;;;4.22;3.13;;;14.70;92.40;;;;;;4955141;29;20046;-35
2023/10/18 02:17:02;;;;;;;4.32;3.00;;;14.70;92.40;;;;;;4937480;29;20110;-38
2023/10/18 02:19:29;;;;;;;3.90;2.70;;;14.70;92.40;;;;;;4954758;29;20030;-37
2023/10/18 02:21:59;;;;;;;4.30;3.08;;;14.70;92.40;;;;;;4954685;29;20051;-37
2023/10/18 02:24:25;;;;;;;3.92;2.80;;;14.70;92.40;;;;;;4954475;29;20387;-37
2023/10/18 02:26:54;;;;;;;4.38;2.90;;;14.70;92.40;;;;;;4954337;29;20034;-36
2023/10/18 02:29:21;;;;;;;3.92;3.10;;;14.70;92.40;;;;;;4954295;29;20019;-37
2023/10/18 02:31:47;;;;;;;3.53;2.72;;;14.70;92.40;;;;;;4954496;29;20027;-36
2023/10/18 02:34:14;;;;;;;3.47;2.80;;;14.70;92.40;;;;;;4954600;29;20035;-38
2023/10/18 02:36:47;;;;;;;3.95;2.78;;;14.70;92.40;;;;;;4954195;29;20461;-41
2023/10/18 02:39:19;;;;;;;4.00;2.88;;;14.70;92.40;;;;;;4954396;29;20429;-39
2023/10/18 02:41:45;;;;;;;4.07;2.83;;;14.70;92.40;;;;;;4954146;29;20051;-39
2023/10/18 02:44:21;;;;;;;3.95;2.83;;;14.70;92.30;;;;;;4954595;29;20062;-39
2023/10/18 02:46:49;;;;;;;3.97;2.88;;;14.70;92.40;;;;;;4954094;29;20032;-38
2023/10/18 02:49:15;;;;;;;4.57;2.97;;;14.70;92.30;;;;;;4954011;29;20034;-38
2023/10/18 02:51:41;;;;;;;4.05;2.85;;;14.70;92.30;;;;;;4953982;29;20098;-36
2023/10/18 02:54:16;;;;;;;3.33;2.85;;;14.70;92.30;;;;;;4953867;29;20027;-35
2023/10/18 02:56:52;;;;;;;4.13;2.78;;;14.70;92.30;;;;;;4953818;29;20047;-37
2023/10/18 02:59:21;;;;;;;4.28;2.80;;;14.70;92.30;;;;;;4953936;29;20029;-35
2023/10/18 03:01:49;;;;;;;3.63;2.80;;;14.70;92.30;;;;;;4953054;28;20027;-35
2023/10/18 03:04:14;;;;;;;3.78;3.03;;;14.60;92.30;;;;;;4953713;29;20027;-39
2023/10/18 03:06:41;;;;;;;5.43;2.80;;;14.70;92.30;;;;;;4953562;29;20038;-35
2023/10/18 03:11:53;;;;;;;4.80;3.17;;;14.70;92.20;;;;;;4953756;29;20109;-36
2023/10/18 03:14:19;;;;;;;3.95;2.88;;;14.70;92.20;;;;;;4953664;29;20031;-38
2023/10/18 03:16:46;;;;;;;4.45;2.92;;;14.70;92.20;;;;;;4953497;29;20035;-38
2023/10/18 03:19:12;;;;;;;4.72;2.63;;;14.70;92.20;;;;;;4953534;29;20043;-38
2023/10/18 03:21:46;;;;;;;4.25;3.08;;;14.70;92.20;;;;;;4953825;29;20027;-35
2023/10/18 03:24:12;;;;;;;4.57;2.88;;;14.70;92.20;;;;;;4953532;29;20054;-35
2023/10/18 03:26:38;;;;;;;3.72;2.80;;;14.70;92.50;;;;;;4953464;29;20073;-35
2023/10/18 03:29:16;;;;;;;4.97;2.75;;;14.70;92.20;;;;;;4953380;29;20066;-36
2023/10/18 03:31:47;;;;;;;4.28;2.60;;;14.70;92.20;;;;;;4953307;29;20035;-38
2023/10/18 03:34:19;;;;;;;5.72;2.75;;;14.70;92.20;;;;;;4953353;29;20027;-38
2023/10/18 03:36:49;;;;;;;3.67;2.67;;;14.70;92.20;;;;;;4953259;29;20434;-41
2023/10/18 03:39:18;;;;;;;3.83;2.85;;;14.60;92.10;;;;;;4953111;29;20030;-39
2023/10/18 03:41:46;;;;;;;3.65;2.90;;;14.60;92.20;;;;;;4953268;29;20023;-39
2023/10/18 03:44:13;;;;;;;4.18;3.25;;;14.70;92.20;;;;;;4953169;29;20031;-36
2023/10/18 03:46:47;;;;;;;4.00;2.60;;;14.60;92.10;;;;;;4953226;29;20035;-35
2023/10/18 03:49:33;;;;;;;5.78;2.80;;;14.60;92.10;;;;;;4953283;29;20047;-35
2023/10/18 03:52:17;;;;;;;4.25;2.80;;;14.60;92.10;;;;;;4953181;29;20102;-43
2023/10/18 03:54:45;;;;;;;4.25;2.75;;;14.60;92.10;;;;;;4953037;29;20024;-37
2023/10/18 03:57:16;;;;;;;3.70;2.80;;;14.60;92.10;;;;;;4953097;29;20020;-37
2023/10/18 03:59:45;;;;;;;3.05;2.40;;;14.60;92.10;;;;;;4953218;29;20144;-37
2023/10/18 04:02:27;;;;;;;3.90;2.83;;;14.60;92.10;;;;;;4953304;29;20038;-37
2023/10/18 04:05:00;;;;;;;3.75;2.60;;;14.60;92.10;;;;;;4953055;29;20031;-39
2023/10/18 04:07:26;;;;;;;4.80;3.33;;;14.60;92.10;;;;;;4952966;29;20038;-43
2023/10/18 04:12:22;;;;;;;5.60;3.20;;;14.60;92.10;;;;;;4952983;29;20054;-35
2023/10/18 04:15:00;;;;;;;5.80;2.90;;;14.60;92.00;;;;;;4955858;28;20019;-36
2023/10/18 04:17:37;;;;;;;3.80;2.70;;;14.60;92.00;;;;;;4957187;29;20026;-35
2023/10/18 04:20:22;;;;;;;3.55;2.58;;;14.60;92.10;;;;;;4956760;29;20027;-36
2023/10/18 04:22:48;;;;;;;;;;;14.60;92.10;;;;;;4957275;29;20107;-36
2023/10/18 04:25:36;;;;;;;5.60;2.80;;;14.60;92.10;;;;;;4956634;29;20719;-36
2023/10/18 04:28:02;;;;;;;4.38;2.90;;;14.60;92.00;;;;;;4956503;29;20046;-36
2023/10/18 04:30:31;;;;;;;4.47;2.60;;;14.60;92.00;;;;;;4956796;29;20023;-40
2023/10/18 04:33:07;;;;;;;2.90;2.30;;;14.60;92.00;;;;;;4956514;29;20115;-41
2023/10/18 04:35:36;;;;;;;4.38;2.78;;;14.60;92.00;;;;;;4956402;29;20027;-39
2023/10/18 04:38:20;;;;;;;3.83;2.35;;;14.60;92.00;;;;;;4956727;29;20019;-39
2023/10/18 04:40:55;;;;;;;4.05;3.15;;;14.60;92.00;;;;;;4958442;29;20118;-37
2023/10/18 04:43:25;;;;;;;4.03;2.65;;;14.60;92.00;;;;;;4956619;29;20031;-38
2023/10/18 04:45:59;;;;;;;4.10;2.95;;;14.60;92.00;;;;;;4956241;29;20404;-39
2023/10/18 04:51:18;;;;;;;4.25;2.95;;;14.60;92.00;;;;;;4956455;29;20498;-39
2023/10/18 04:53:45;;;;;;;;;;;14.60;92.00;;;;;;4956594;29;20027;-39
2023/10/18 04:56:10;;;;;;;3.65;2.58;;;14.60;92.00;;;;;;4956069;29;20287;-42
2023/10/18 04:58:40;;;;;;;3.90;2.95;;;14.60;92.00;;;;;;4956112;29;20106;-39
2023/10/18 05:01:07;;;;;;;5.80;2.47;;;14.60;92.00;;;;;;4956067;29;20027;-38
2023/10/18 05:03:33;;;;;;;3.17;2.50;;;14.60;92.00;;;;;;4956399;29;20110;-41
2023/10/18 05:06:00;;;;;;;4.13;2.83;;;14.60;92.00;;;;;;4955776;29;20031;-39
2023/10/18 05:08:30;;;;;;;3.78;2.80;;;14.60;92.00;;;;;;4955837;29;20027;-38
2023/10/18 05:11:04;;;;;;;3.38;2.65;;;14.60;92.00;;;;;;4955938;29;20585;-39
2023/10/18 05:13:32;;;;;;;5.00;2.80;;;14.50;91.90;;;;;;4955771;29;20401;-45
2023/10/18 05:16:03;;;;;;;5.15;2.72;;;14.50;91.90;;;;;;4938245;29;20113;-39
2023/10/18 05:18:30;;;;;;;3.97;2.65;;;14.50;91.90;;;;;;4955656;29;20473;-39
2023/10/18 05:20:57;;;;;;;4.35;2.90;;;14.50;91.90;;;;;;4955664;29;20038;-39
2023/10/18 05:23:26;;;;;;;4.72;2.90;;;14.50;91.90;;;;;;4938446;29;20086;-40
2023/10/18 05:34:22;;;;;;;3.25;2.72;;;14.50;91.90;;;;;;4925411;29;20046;-41
2023/10/18 05:41:51;;;;;;;5.45;3.00;;;14.50;91.90;;;;;;4955516;29;20413;-39
2023/10/18 05:44:17;;;;;;;4.57;2.70;;;14.50;91.90;;;;;;4955188;29;20023;-39
2023/10/18 05:46:46;;;;;;;4.50;2.75;;;14.50;91.90;;;;;;4955101;29;20034;-39
2023/10/18 05:49:23;;;;;;;3.22;2.72;;;14.60;91.90;;;;;;4955065;29;20058;-39
2023/10/18 05:54:34;;;;;;;6.07;2.72;;;14.50;91.90;;;;;;4955136;29;20034;-38
2023/10/18 05:57:00;;;;;;;5.35;3.10;;;14.50;91.90;;;;;;4954947;29;20023;-39
2023/10/18 05:59:32;;;;;;;4.10;2.78;;;14.50;91.90;;;;;;4954933;29;20370;-39
2023/10/18 06:01:58;;;;;;;4.65;2.97;;;14.50;91.80;;;;;;4954963;29;20106;-39
2023/10/18 06:04:25;;;;;;;3.25;2.47;;;14.50;91.80;;;;;;4955186;29;20336;-39
2023/10/18 06:07:10;;;;;;;3.42;2.50;;;14.50;91.80;;;;;;4954753;29;20481;-46
2023/10/18 06:09:46;;;;;;;3.80;2.85;;;14.50;91.90;;;;;;4954834;29;20031;-39
2023/10/18 06:12:22;;;;;;;4.13;2.92;;;14.50;91.80;;;;;;4954571;29;20032;-40
2023/10/18 06:14:51;;;;;;;5.75;2.65;;;14.50;92.20;;;;;;4954856;29;20024;-41
2023/10/18 06:17:22;;;;;;;3.15;2.72;;;14.50;91.90;;;;;;4954599;29;20078;-41
2023/10/18 06:19:50;;;;;;;3.67;2.78;;;14.50;91.90;;;;;;4954554;29;20023;-38
2023/10/18 06:22:28;;;;;;;4.53;2.95;;;14.50;91.90;;;;;;4954541;29;20035;-38
2023/10/18 06:24:57;;;;;;;3.55;3.08;;;14.50;91.90;;;;;;4954375;29;20031;-40
2023/10/18 06:27:23;;;;;;;4.25;2.60;;;14.50;91.90;;;;;;4954353;29;20023;-38
2023/10/18 06:29:53;;;;;;;4.95;2.70;;;14.50;91.90;;;;;;4954365;29;20102;-37
2023/10/18 06:32:22;;;;;;;4.28;3.15;;;14.50;91.90;;;;;;4954410;29;20473;-37
2023/10/18 06:34:49;;;;;;;3.97;2.97;;;14.50;91.90;;;;;;4954322;29;20023;-37
2023/10/18 06:37:31;;;;;;;3.97;2.42;;;14.50;91.90;;;;;;4953996;28;20030;-37
2023/10/18 06:40:00;;;;;;;3.67;2.67;;;14.50;91.90;;;;;;4954203;29;20471;-39
2023/10/18 06:42:28;;;;;;;3.83;2.80;;;14.50;91.90;;;;;;4954186;29;20470;-41
2023/10/18 06:44:56;;;;;;;3.45;2.85;;;14.50;91.90;;;;;;4954067;29;20397;-43
2023/10/18 06:47:30;;;;;;;3.33;2.78;;;14.50;91.90;;;;;;4954021;29;20575;-42
2023/10/18 06:49:59;;;;;;;;;;;14.50;91.90;;;;;;4954615;29;20043;-39
2023/10/18 06:52:28;;;;;;;5.68;3.67;;;14.50;91.90;;;;;;4953921;29;19910;-42
2023/10/18 06:54:55;;;;;;;4.57;3.20;;;14.50;91.90;;;;;;4954144;29;20023;-43
2023/10/18 06:57:27;;;;;;;5.03;3.30;;;14.50;91.90;;;;;;4953776;29;20098;-39
2023/10/18 06:59:54;;;;;;;5.20;3.30;;;14.50;91.90;;;;;;4953883;29;20101;-43
2023/10/18 07:02:26;;;;;;;4.18;3.20;;;14.50;92.00;;;;;;4953742;29;20367;-35
2023/10/18 07:04:56;;;;;;;3.83;3.00;;;14.50;92.00;;;;;;4953750;29;20118;-36
2023/10/18 07:07:23;;;;;;;11.75;9.43;;;;;;;;;;4953614;29;20484;-35
2023/10/18 07:09:52;;;;;;;12.48;9.15;;;;;;;;;;4953762;29;20060;-34
2023/10/18 07:12:19;;;;;;;13.20;9.07;;;;;;;;;;4954963;29;20481;-37
2023/10/18 07:14:46;;;;;;;12.88;8.00;;;;;;;;;;4953408;29;20031;-38
2023/10/18 07:17:14;;;;;;;11.48;8.05;;;;;;;;;;4953659;29;20023;-36
2023/10/18 07:19:49;;;;;;;12.25;7.43;;;;;;;;;;4953563;29;20028;-36
2023/10/18 07:22:21;;;;;;;10.73;7.18;;;;;;;;;;4953513;29;20492;-37
2023/10/18 07:24:47;;;;;;;9.73;6.55;;;;;;;;;;4953799;29;20102;-37
2023/10/18 07:27:17;;;;;;;9.18;5.93;;;;;;;;;;4953260;29;20486;-39
2023/10/18 07:29:48;;;;;;;10.85;5.95;;;;;;;;;;4953394;29;20102;-37
2023/10/18 07:32:14;;;;;;;8.32;6.22;;;;;;;;;;4953308;29;20557;-39
2023/10/18 07:34:42;;;;;;;8.30;5.15;;;13.70;92.60;;;;;;4953321;29;20023;-39
2023/10/18 07:37:17;;;;;;;7.47;5.25;;;13.60;92.80;;;;;;4953267;29;20030;-37
2023/10/18 07:39:49;;;;;;;7.45;5.20;;;13.80;92.80;;;;;;4953086;29;20028;-37
2023/10/18 07:42:19;;;;;;;5.90;4.38;;;13.90;92.70;;;;;;4953930;29;20074;-38
2023/10/18 07:44:46;;;;;;;7.18;5.10;;;13.90;92.70;;;;;;4953280;29;20019;-37
2023/10/18 07:47:18;;;;;;;7.72;4.82;;;14.00;92.60;;;;;;4953665;29;20107;-38
2023/10/18 07:49:45;;;;;;;7.35;4.53;;;14.10;92.60;;;;;;4952845;29;20027;-38
2023/10/18 07:52:11;;;;;;;7.05;4.47;;;14.10;92.60;;;;;;4954799;29;20023;-38
2023/10/18 07:54:37;;;;;;;7.93;4.35;;;14.20;92.50;;;;;;4956915;29;20492;-37
2023/10/18 07:57:02;;;;;;;7.45;4.38;;;14.20;92.50;;;;;;4954511;29;20082;-37
2023/10/18 07:59:32;;;;;;;5.03;4.03;;;14.30;92.50;;;;;;4953704;29;20031;-38
2023/10/18 08:02:19;;;;;;;5.32;4.15;;;14.30;92.40;;;;;;4953133;29;20521;-37
2023/10/18 08:04:48;;;;;;;5.72;3.95;;;14.40;92.40;;;;;;4952941;29;20024;-37
2023/10/18 08:07:15;;;;;;;5.63;4.03;;;14.40;92.40;;;;;;4953066;29;20445;-37
2023/10/18 08:09:44;;;;;;;6.60;4.05;;;14.50;92.40;;;;;;4952918;29;20051;-37
2023/10/18 08:14:48;;;;;;;5.40;4.03;;;14.50;92.30;;;;;;4953075;29;20461;-37
2023/10/18 08:22:44;;;;;;;5.22;3.63;;;14.60;92.30;;;;;;4953339;29;20082;-35
2023/10/18 08:25:21;;;;;;;5.05;3.67;;;14.70;92.30;;;;;;4952827;29;20158;-35
2023/10/18 08:27:51;;;;;;;6.55;3.92;;;14.70;92.30;;;;;;4952754;29;20061;-38
2023/10/18 08:33:03;;;;;;;4.38;3.15;;;14.80;92.30;;;;;;4953026;29;20046;-41
2023/10/18 08:35:29;;;;;;;5.43;3.33;;;14.80;92.30;;;;;;4952747;29;20059;-39
2023/10/18 08:37:55;;;;;;;4.88;3.55;;;14.80;92.30;;;;;;4952738;29;20095;-35
2023/10/18 08:43:23;;;;;;;5.72;3.30;;;14.90;92.60;;;;;;4953071;29;20027;-35
2023/10/18 08:45:50;;;;;;;4.93;3.42;;;14.90;92.20;;;;;;4952863;29;20144;-35
2023/10/18 08:48:17;;;;;;;4.30;3.03;;;14.90;92.20;;;;;;4952611;29;20512;-35
2023/10/18 08:50:48;;;;;;;5.75;3.40;;;15.00;92.20;;;;;;4953089;29;20123;-38
2023/10/18 08:53:15;;;;;;;4.90;3.20;;;15.00;92.30;;;;;;4952741;29;20485;-39
2023/10/18 08:55:45;;;;;;;4.57;3.33;;;15.00;92.20;;;;;;4952743;29;20413;-37
2023/10/18 08:58:17;;;;;;;5.30;3.40;;;15.00;92.20;;;;;;4953005;29;20101;-38
2023/10/18 09:03:14;;;;;;;5.28;3.35;;;15.00;92.10;;;;;;4955959;29;20059;-38
2023/10/18 09:05:40;;;;;;;4.90;3.33;;;15.10;92.20;;;;;;4955861;29;20035;-38
2023/10/18 09:08:08;;;;;;;6.78;3.38;;;15.10;92.20;;;;;;4956005;29;20077;-38
2023/10/18 09:15:54;;;;;;;6.35;3.28;;;15.20;92.20;;;;;;4955709;29;20027;-38
2023/10/18 09:18:24;;;;;;;12.75;7.43;;;15.20;92.10;;;;;;4956111;29;20035;-40
2023/10/18 09:20:51;;;;;;;8.27;7.00;;;15.10;94.20;;;;;;4955768;29;20019;-39
2023/10/18 09:23:20;;;;;;;9.40;6.03;;;14.90;94.20;;;;;;4955852;29;20034;-38
2023/10/18 09:25:50;;;;;;;9.63;5.55;;;14.90;94.20;;;;;;4955574;29;20027;-37
2023/10/18 09:28:30;;;;;;;11.07;5.47;;;14.90;94.00;;;;;;4955627;29;20043;-37
2023/10/18 09:31:02;;;;;;;7.45;5.07;;;15.00;93.80;;;;;;4955979;29;20449;-36
2023/10/18 09:33:32;;;;;;;10.73;4.93;;;15.10;93.60;;;;;;4955603;29;20034;-36
2023/10/18 09:36:05;;;;;;;7.03;4.28;;;15.20;93.50;;;;;;4955232;29;20079;-36
2023/10/18 09:38:41;;;;;;;7.80;3.97;;;15.30;93.30;;;;;;4955602;29;20029;-37
2023/10/18 09:41:07;;;;;;;7.13;3.92;;;15.30;93.20;;;;;;4955414;29;20054;-36
2023/10/18 09:43:36;;;;;;;7.60;3.60;;;15.30;93.10;;;;;;4955476;29;20030;-35
2023/10/18 09:46:03;;;;;;;6.00;3.80;;;15.30;93.10;;;;;;4955102;29;20066;-38
2023/10/18 09:48:32;;;;;;;9.98;3.60;;;15.30;93.00;;;;;;4955204;29;20111;-38
2023/10/18 09:51:06;;;;;;;4.88;3.15;;;15.40;93.00;;;;;;4955162;29;20102;-38
2023/10/18 09:53:42;;;;;;;;;;;15.40;93.00;;;;;;4955538;29;20118;-38
2023/10/18 09:56:08;;;;;;;;;;;15.30;93.00;;;;;;4955469;29;19910;-38
2023/10/18 09:58:41;;;;;;;8.10;3.35;;;15.40;92.90;;;;;;4955082;29;19993;-42
2023/10/18 10:01:24;;;;;;;5.88;2.97;;;15.40;92.90;;;;;;4955048;29;20085;-41
2023/10/18 10:03:53;;;;;;;5.90;3.15;;;15.50;92.90;;;;;;4955019;29;20023;-39
2023/10/18 10:06:27;;;;;;;4.93;2.67;;;15.50;92.80;;;;;;4937461;29;20034;-39
2023/10/18 10:08:55;;;;;;;4.35;2.75;;;15.60;92.70;;;;;;4954995;29;20401;-40
2023/10/18 10:11:29;;;;;;;7.28;2.72;;;15.70;92.70;;;;;;4955492;28;20653;-40
2023/10/18 10:13:58;;;;;;;4.78;2.92;;;15.70;92.60;;;;;;4955131;29;20027;-42
2023/10/18 10:16:27;;;;;;;4.38;2.70;;;15.80;92.50;;;;;;4954744;29;20027;-39
2023/10/18 10:18:54;;;;;;;5.20;2.70;;;15.80;92.50;;;;;;4954774;29;20066;-41
2023/10/18 10:21:23;;;;;;;5.55;2.60;;;15.90;92.50;;;;;;4954697;29;20031;-41
2023/10/18 10:23:57;;;;;;;4.97;2.78;;;15.90;92.50;;;;;;4954604;29;20034;-38
2023/10/18 10:26:27;;;;;;;;;;;16.00;92.40;;;;;;4954725;29;20027;-41
2023/10/18 10:31:58;;;;;;;4.07;2.67;;;16.00;92.40;;;;;;4938860;29;20031;-41
2023/10/18 10:34:34;;;;;;;4.88;2.22;;;15.90;92.40;;;;;;4954364;29;20031;-39
2023/10/18 10:37:12;;;;;;;4.38;2.55;;;15.90;92.40;;;;;;4954587;29;20027;-38
2023/10/18 10:39:49;;;;;;;12.70;5.30;;;16.00;92.50;;;;;;4954184;29;20101;-37
2023/10/18 10:42:46;;;;;;;10.68;6.43;;;15.90;95.00;;;;;;4954404;29;20085;-38
2023/10/18 10:45:35;;;;;;;13.80;7.28;;;15.70;95.30;;;;;;4954445;29;20110;-38
2023/10/18 10:48:28;;;;;;;11.77;6.32;;;15.50;95.70;;;;;;4954052;29;20547;-38
2023/10/18 10:51:13;;;;;;;5.55;4.38;;;15.30;96.10;;;;;;4953957;29;20396;-38
2023/10/18 10:53:54;;;;;;;9.38;5.20;;;15.20;96.30;;;;;;4953943;29;20032;-40
2023/10/18 10:56:36;;;;;;;6.78;4.40;;;15.30;96.20;;;;;;4953927;29;20046;-39
2023/10/18 11:01:40;;;;;;;8.98;3.90;;;15.40;95.60;;;;;;4954408;29;20036;-41
2023/10/18 11:04:57;;;;;;;8.80;3.42;;;15.50;95.40;;;;;;4953890;29;20118;-39
2023/10/18 11:07:25;;;;;;;4.45;3.13;;;15.50;95.30;;;;;;4955847;29;20035;-37
2023/10/18 11:10:06;;;;;;;5.72;3.13;;;15.50;95.10;;;;;;4938965;29;20031;-38
2023/10/18 11:12:33;;;;;;;5.88;3.20;;;15.60;95.00;;;;;;4954872;29;20054;-41
2023/10/18 11:15:00;;;;;;;5.68;3.13;;;15.60;94.90;;;;;;4954110;29;20387;-37
2023/10/18 11:17:25;;;;;;;6.13;2.88;;;15.60;94.80;;;;;;4953858;29;20024;-37
2023/10/18 11:19:58;;;;;;;5.47;2.58;;;15.60;94.70;;;;;;4954125;29;20038;-38
2023/10/18 11:22:27;;;;;;;5.90;2.70;;;15.60;94.70;;;;;;4953416;28;20020;-40
2023/10/18 11:24:55;;;;;;;4.18;2.65;;;15.60;94.60;;;;;;4953048;29;20031;-38
2023/10/18 11:27:23;;;;;;;4.53;2.85;;;15.60;94.60;;;;;;4953557;29;20034;-38
2023/10/18 11:29:55;;;;;;;4.15;2.53;;;15.60;94.50;;;;;;4953646;29;20027;-37
2023/10/18 11:32:27;;;;;;;4.30;2.78;;;15.60;94.50;;;;;;4953812;29;20388;-38
2023/10/18 11:35:04;;;;;;;2.80;2.05;;;15.60;94.50;;;;;;4953383;29;20027;-38
2023/10/18 11:37:37;;;;;;;3.75;2.33;;;15.60;94.40;;;;;;4953368;29;20027;-39
2023/10/18 11:40:29;;;;;;;5.53;2.60;;;15.60;94.40;;;;;;4953291;29;20031;-38
2023/10/18 11:43:08;;;;;;;5.35;2.60;;;15.60;94.40;;;;;;4953473;29;20034;-38
2023/10/18 11:45:36;;;;;;;4.20;2.40;;;15.60;94.40;;;;;;4953066;29;20035;-37
2023/10/18 11:48:03;;;;;;;3.97;2.33;;;15.60;94.40;;;;;;4953184;29;20028;-37
2023/10/18 11:50:42;;;;;;;3.67;2.35;;;15.60;94.40;;;;;;4953132;29;20114;-38
2023/10/18 11:53:12;;;;;;;3.85;2.33;;;15.60;94.30;;;;;;4953291;29;20401;-40
2023/10/18 11:55:55;;;;;;;4.28;2.70;;;15.60;94.30;;;;;;4953188;29;20441;-39
2023/10/18 11:58:22;;;;;;;4.60;2.17;;;15.60;94.30;;;;;;4953100;29;20024;-38
2023/10/18 12:00:47;;;;;;;3.42;2.28;;;15.60;94.30;;;;;;4953221;29;20028;-38
2023/10/18 12:03:14;;;;;;;4.60;2.28;;;15.60;94.30;;;;;;4953176;29;20031;-39
2023/10/18 12:05:42;;;;;;;4.05;2.40;;;15.60;94.30;;;;;;4935867;29;20444;-39
2023/10/18 12:08:13;;;;;;;3.88;2.40;;;15.60;94.30;;;;;;4953055;29;20086;-37
2023/10/18 12:10:39;;;;;;;4.47;2.30;;;15.60;94.30;;;;;;4952870;29;20031;-38
2023/10/18 12:13:06;;;;;;;2.85;2.17;;;15.50;94.30;;;;;;4952964;29;20046;-37
2023/10/18 12:15:36;;;;;;;3.00;2.00;;;15.50;94.30;;;;;;4952903;29;20392;-36
2023/10/18 12:18:04;;;;;;;3.88;2.35;;;15.50;94.30;;;;;;4953036;29;20098;-37
2023/10/18 12:20:45;;;;;;;3.00;1.80;;;15.50;94.30;;;;;;4952918;29;20139;-35
2023/10/18 12:23:13;;;;;;;5.15;1.80;;;15.50;94.30;;;;;;4952907;29;20038;-39
2023/10/18 12:25:42;;;;;;;3.17;2.30;;;15.50;94.30;;;;;;4935545;29;20027;-39
2023/10/18 12:28:12;;;;;;;2.45;1.95;;;15.50;94.30;;;;;;4952903;29;20106;-39
2023/10/18 12:30:39;;;;;;;2.40;2.10;;;15.50;94.30;;;;;;4952907;29;20481;-37
2023/10/18 12:33:05;;;;;;;4.38;2.13;;;15.50;94.30;;;;;;4952814;29;20038;-36
2023/10/18 12:35:34;;;;;;;3.25;1.90;;;15.50;94.30;;;;;;4937708;29;20031;-39
2023/10/18 12:38:00;;;;;;;3.17;1.92;;;15.50;94.30;;;;;;4939278;29;20058;-37
2023/10/18 12:40:39;;;;;;;8.57;2.63;;;15.50;94.30;;;;;;4954933;29;20027;-39
2023/10/18 12:43:08;;;;;;;7.20;2.20;;;15.40;95.70;;;;;;4937777;29;20039;-36
2023/10/18 12:45:45;;;;;;;3.78;2.10;;;15.30;96.10;;;;;;4937125;29;20031;-37
2023/10/18 12:48:14;;;;;;;6.53;2.63;;;15.30;95.80;;;;;;4935569;29;20028;-36
2023/10/18 12:50:45;;;;;;;3.90;2.22;;;15.30;95.60;;;;;;4919905;29;20422;-37
2023/10/18 12:55:57;;;;;;;4.00;2.30;;;15.40;95.40;;;;;;4937020;29;20059;-37
2023/10/18 12:58:30;;;;;;;5.93;2.08;;;15.40;95.30;;;;;;4936919;29;20032;-35
2023/10/18 13:01:05;;;;;;;3.88;2.20;;;15.40;95.20;;;;;;4935647;29;20028;-35
2023/10/18 13:03:37;;;;;;;5.38;1.90;;;15.40;95.20;;;;;;4936936;29;20031;-35
2023/10/18 13:06:15;;;;;;;4.60;2.20;;;15.40;95.10;;;;;;4936648;29;20032;-35
2023/10/18 13:08:56;;;;;;;4.70;2.20;;;15.40;95.10;;;;;;4919684;29;20031;-34
2023/10/18 13:14:15;;;;;;;3.58;1.55;;;15.40;95.30;;;;;;4902708;28;20046;-34
2023/10/18 13:16:44;;;;;;;3.08;1.80;;;15.40;95.00;;;;;;4955813;29;20027;-34
2023/10/18 13:19:15;;;;;;;3.80;1.70;;;15.40;94.90;;;;;;4956175;29;20023;-35
2023/10/18 13:21:43;;;;;;;2.85;1.75;;;15.40;95.00;;;;;;4955716;29;20078;-34
2023/10/18 13:24:17;;;;;;;3.28;1.80;;;15.40;94.90;;;;;;4955705;29;20034;-38
2023/10/18 13:26:44;;;;;;;4.45;2.28;;;15.40;94.90;;;;;;4955582;29;20027;-37
2023/10/18 13:29:27;;;;;;;3.90;1.80;;;15.40;94.90;;;;;;4955585;29;20161;-34
2023/10/18 13:31:59;;;;;;;3.10;1.88;;;15.40;94.90;;;;;;4955410;29;20031;-34
2023/10/18 13:34:32;;;;;;;3.15;1.85;;;15.40;94.90;;;;;;4955438;29;20097;-35
2023/10/18 13:36:59;;;;;;;5.10;1.77;;;15.40;94.80;;;;;;4955340;29;20027;-34
2023/10/18 13:39:27;;;;;;;2.78;1.73;;;15.40;94.80;;;;;;4955274;29;20128;-35
2023/10/18 13:41:53;;;;;;;3.83;1.98;;;15.50;94.90;;;;;;4955884;29;20030;-38
2023/10/18 13:44:23;;;;;;;2.30;1.80;;;15.40;94.90;;;;;;4955666;28;20369;-38
2023/10/18 13:46:55;;;;;;;2.95;2.00;;;15.50;94.90;;;;;;4954301;28;20035;-38
2023/10/18 13:49:25;;;;;;;3.00;1.63;;;15.40;94.80;;;;;;4955237;29;20031;-38
2023/10/18 13:51:53;;;;;;;2.40;1.80;;;15.40;94.80;;;;;;4955206;29;20031;-38
2023/10/18 13:54:20;;;;;;;5.38;1.90;;;15.50;95.20;;;;;;4955447;29;20478;-38
2023/10/18 13:56:46;;;;;;;2.88;1.70;;;15.50;94.80;;;;;;4954897;29;20042;-38
2023/10/18 13:59:13;;;;;;;5.22;1.70;;;15.40;94.80;;;;;;4954992;29;20028;-36
2023/10/18 14:01:40;;;;;;;2.83;1.70;;;15.40;94.80;;;;;;4954970;29;20019;-35
2023/10/18 14:04:08;;;;;;;3.22;1.88;;;15.40;94.80;;;;;;4954873;29;20477;-36